sensor_id;sensor_type;location;lat;lon;timestamp;temperature;humidity
11647;DHT22;5880;52.342;9.662;2023-01-23T00:00:43;5.90;71.70
11647;DHT22;5880;52.342;9.662;2023-01-23T00:03:11;5.70;71.70
11647;DHT22;5880;52.342;9.662;2023-01-23T00:05:37;5.70;71.70
11647;DHT22;5880;52.342;9.662;2023-01-23T00:08:03;5.70;71.70
11647;DHT22;5880;52.342;9.662;2023-01-23T00:10:28;5.70;71.80
11647;DHT22;5880;52.342;9.662;2023-01-23T00:12:54;5.70;71.80
11647;DHT22;5880;52.342;9.662;2023-01-23T00:15:21;5.70;71.70
11647;DHT22;5880;52.342;9.662;2023-01-23T00:17:47;5.70;71.70
11647;DHT22;5880;52.342;9.662;2023-01-23T00:20:13;5.70;71.80
11647;DHT22;5880;52.342;9.662;2023-01-23T00:22:38;5.70;71.90
11647;DHT22;5880;52.342;9.662;2023-01-23T00:25:05;5.80;72.00
11647;DHT22;5880;52.342;9.662;2023-01-23T00:27:32;5.70;71.80
11647;DHT22;5880;52.342;9.662;2023-01-23T00:29:58;5.70;71.80
11647;DHT22;5880;52.342;9.662;2023-01-23T00:32:23;5.70;71.80
11647;DHT22;5880;52.342;9.662;2023-01-23T00:34:49;5.70;71.90
11647;DHT22;5880;52.342;9.662;2023-01-23T00:37:15;5.70;71.90
11647;DHT22;5880;52.342;9.662;2023-01-23T00:39:41;5.70;71.90
11647;DHT22;5880;52.342;9.662;2023-01-23T00:42:07;5.70;71.90
11647;DHT22;5880;52.342;9.662;2023-01-23T00:44:33;5.70;71.90
11647;DHT22;5880;52.342;9.662;2023-01-23T00:46:59;5.70;71.90
11647;DHT22;5880;52.342;9.662;2023-01-23T00:49:25;5.70;71.90
11647;DHT22;5880;52.342;9.662;2023-01-23T00:51:51;5.70;71.80
11647;DHT22;5880;52.342;9.662;2023-01-23T00:54:18;5.70;71.90
11647;DHT22;5880;52.342;9.662;2023-01-23T00:56:45;5.70;72.00
11647;DHT22;5880;52.342;9.662;2023-01-23T00:59:12;5.70;72.00
11647;DHT22;5880;52.342;9.662;2023-01-23T01:01:37;5.70;71.90
11647;DHT22;5880;52.342;9.662;2023-01-23T01:04:03;5.70;71.90
11647;DHT22;5880;52.342;9.662;2023-01-23T01:06:29;5.70;71.90
11647;DHT22;5880;52.342;9.662;2023-01-23T01:08:56;5.60;71.90
11647;DHT22;5880;52.342;9.662;2023-01-23T01:11:22;5.70;72.00
11647;DHT22;5880;52.342;9.662;2023-01-23T01:13:48;5.70;72.00
11647;DHT22;5880;52.342;9.662;2023-01-23T01:16:15;5.70;72.00
11647;DHT22;5880;52.342;9.662;2023-01-23T01:18:41;6.10;72.10
11647;DHT22;5880;52.342;9.662;2023-01-23T01:21:09;5.70;72.00
11647;DHT22;5880;52.342;9.662;2023-01-23T01:23:38;5.60;72.30
11647;DHT22;5880;52.342;9.662;2023-01-23T01:26:04;5.70;72.20
11647;DHT22;5880;52.342;9.662;2023-01-23T01:28:32;5.70;72.30
11647;DHT22;5880;52.342;9.662;2023-01-23T01:31:05;5.60;72.20
11647;DHT22;5880;52.342;9.662;2023-01-23T01:33:32;5.60;72.20
11647;DHT22;5880;52.342;9.662;2023-01-23T01:35:59;5.60;72.20
11647;DHT22;5880;52.342;9.662;2023-01-23T01:38:26;5.60;72.10
11647;DHT22;5880;52.342;9.662;2023-01-23T01:40:52;5.60;72.10
11647;DHT22;5880;52.342;9.662;2023-01-23T01:43:23;5.60;72.10
11647;DHT22;5880;52.342;9.662;2023-01-23T01:46:18;5.60;72.10
11647;DHT22;5880;52.342;9.662;2023-01-23T01:49:05;5.70;72.30
11647;DHT22;5880;52.342;9.662;2023-01-23T01:54:30;5.60;72.20
11647;DHT22;5880;52.342;9.662;2023-01-23T01:57:00;5.70;72.40
11647;DHT22;5880;52.342;9.662;2023-01-23T01:59:31;5.60;72.10
11647;DHT22;5880;52.342;9.662;2023-01-23T02:02:45;5.70;72.20
11647;DHT22;5880;52.342;9.662;2023-01-23T02:04:57;5.60;72.10
11647;DHT22;5880;52.342;9.662;2023-01-23T02:10:25;5.70;72.40
11647;DHT22;5880;52.342;9.662;2023-01-23T02:12:51;5.60;72.00
11647;DHT22;5880;52.342;9.662;2023-01-23T02:15:19;5.60;72.10
11647;DHT22;5880;52.342;9.662;2023-01-23T02:17:48;5.70;72.30
11647;DHT22;5880;52.342;9.662;2023-01-23T02:20:23;5.60;72.10
11647;DHT22;5880;52.342;9.662;2023-01-23T02:23:17;5.60;72.20
11647;DHT22;5880;52.342;9.662;2023-01-23T02:26:00;5.60;72.40
11647;DHT22;5880;52.342;9.662;2023-01-23T02:31:02;5.60;72.20
11647;DHT22;5880;52.342;9.662;2023-01-23T02:35:54;5.70;72.30
11647;DHT22;5880;52.342;9.662;2023-01-23T02:38:24;5.70;72.20
11647;DHT22;5880;52.342;9.662;2023-01-23T02:40:55;5.70;72.20
11647;DHT22;5880;52.342;9.662;2023-01-23T02:43:26;5.60;72.20
11647;DHT22;5880;52.342;9.662;2023-01-23T02:46:01;5.60;72.20
11647;DHT22;5880;52.342;9.662;2023-01-23T02:48:28;5.80;72.40
11647;DHT22;5880;52.342;9.662;2023-01-23T02:50:53;5.60;72.40
11647;DHT22;5880;52.342;9.662;2023-01-23T02:53:19;5.70;72.30
11647;DHT22;5880;52.342;9.662;2023-01-23T02:55:44;5.70;72.40
11647;DHT22;5880;52.342;9.662;2023-01-23T02:58:10;5.60;72.20
11647;DHT22;5880;52.342;9.662;2023-01-23T03:00:54;5.60;72.20
11647;DHT22;5880;52.342;9.662;2023-01-23T03:03:20;5.60;72.30
11647;DHT22;5880;52.342;9.662;2023-01-23T03:05:46;5.70;72.30
11647;DHT22;5880;52.342;9.662;2023-01-23T03:08:11;5.60;72.20
11647;DHT22;5880;52.342;9.662;2023-01-23T03:10:37;5.70;72.40
11647;DHT22;5880;52.342;9.662;2023-01-23T03:13:03;5.70;72.40
11647;DHT22;5880;52.342;9.662;2023-01-23T03:15:32;5.70;72.30
11647;DHT22;5880;52.342;9.662;2023-01-23T03:17:58;5.70;72.40
11647;DHT22;5880;52.342;9.662;2023-01-23T03:20:25;5.70;72.30
11647;DHT22;5880;52.342;9.662;2023-01-23T03:22:52;5.70;72.30
11647;DHT22;5880;52.342;9.662;2023-01-23T03:25:19;5.70;72.30
11647;DHT22;5880;52.342;9.662;2023-01-23T03:27:44;5.70;72.30
11647;DHT22;5880;52.342;9.662;2023-01-23T03:30:14;5.60;72.50
11647;DHT22;5880;52.342;9.662;2023-01-23T03:32:44;5.60;72.40
11647;DHT22;5880;52.342;9.662;2023-01-23T03:35:11;5.60;72.40
11647;DHT22;5880;52.342;9.662;2023-01-23T03:37:47;5.70;72.50
11647;DHT22;5880;52.342;9.662;2023-01-23T03:40:22;5.60;72.60
11647;DHT22;5880;52.342;9.662;2023-01-23T03:43:08;5.60;72.60
11647;DHT22;5880;52.342;9.662;2023-01-23T03:45:34;5.60;72.40
11647;DHT22;5880;52.342;9.662;2023-01-23T03:47:59;5.70;72.50
11647;DHT22;5880;52.342;9.662;2023-01-23T03:50:25;5.80;72.50
11647;DHT22;5880;52.342;9.662;2023-01-23T03:52:51;4.80;72.20
11647;DHT22;5880;52.342;9.662;2023-01-23T03:55:16;5.60;72.50
11647;DHT22;5880;52.342;9.662;2023-01-23T03:57:42;5.60;72.60
11647;DHT22;5880;52.342;9.662;2023-01-23T04:00:08;5.60;72.50
11647;DHT22;5880;52.342;9.662;2023-01-23T04:02:34;5.60;72.40
11647;DHT22;5880;52.342;9.662;2023-01-23T04:05:00;5.60;72.40
11647;DHT22;5880;52.342;9.662;2023-01-23T04:07:26;5.60;72.30
11647;DHT22;5880;52.342;9.662;2023-01-23T04:09:51;5.60;72.50
11647;DHT22;5880;52.342;9.662;2023-01-23T04:12:17;5.60;73.40
11647;DHT22;5880;52.342;9.662;2023-01-23T04:14:42;5.60;72.60
11647;DHT22;5880;52.342;9.662;2023-01-23T04:17:09;5.60;72.50
11647;DHT22;5880;52.342;9.662;2023-01-23T04:19:35;5.50;72.50
11647;DHT22;5880;52.342;9.662;2023-01-23T04:22:01;5.60;72.60
11647;DHT22;5880;52.342;9.662;2023-01-23T04:24:27;5.60;72.50
11647;DHT22;5880;52.342;9.662;2023-01-23T04:26:53;5.60;72.50
11647;DHT22;5880;52.342;9.662;2023-01-23T04:29:19;6.20;72.90
11647;DHT22;5880;52.342;9.662;2023-01-23T04:31:45;5.60;72.60
11647;DHT22;5880;52.342;9.662;2023-01-23T04:34:10;5.50;72.80
11647;DHT22;5880;52.342;9.662;2023-01-23T04:36:36;5.60;72.80
11647;DHT22;5880;52.342;9.662;2023-01-23T04:39:02;5.60;72.60
11647;DHT22;5880;52.342;9.662;2023-01-23T04:41:30;5.50;72.60
11647;DHT22;5880;52.342;9.662;2023-01-23T04:43:57;5.60;72.70
11647;DHT22;5880;52.342;9.662;2023-01-23T04:46:42;5.60;72.60
11647;DHT22;5880;52.342;9.662;2023-01-23T04:49:08;5.60;72.50
11647;DHT22;5880;52.342;9.662;2023-01-23T04:51:34;5.60;72.50
11647;DHT22;5880;52.342;9.662;2023-01-23T04:54:00;5.60;72.50
11647;DHT22;5880;52.342;9.662;2023-01-23T04:56:26;5.60;72.50
11647;DHT22;5880;52.342;9.662;2023-01-23T04:58:52;5.60;72.40
11647;DHT22;5880;52.342;9.662;2023-01-23T05:01:17;5.60;72.50
11647;DHT22;5880;52.342;9.662;2023-01-23T05:03:48;5.60;72.50
11647;DHT22;5880;52.342;9.662;2023-01-23T05:06:14;5.50;72.40
11647;DHT22;5880;52.342;9.662;2023-01-23T05:08:39;5.50;72.50
11647;DHT22;5880;52.342;9.662;2023-01-23T05:11:05;5.70;72.60
11647;DHT22;5880;52.342;9.662;2023-01-23T05:13:31;5.50;72.50
11647;DHT22;5880;52.342;9.662;2023-01-23T05:15:57;5.50;72.50
11647;DHT22;5880;52.342;9.662;2023-01-23T05:18:22;5.60;72.50
11647;DHT22;5880;52.342;9.662;2023-01-23T05:20:48;5.60;72.50
11647;DHT22;5880;52.342;9.662;2023-01-23T05:23:14;5.50;72.60
11647;DHT22;5880;52.342;9.662;2023-01-23T05:25:39;5.50;72.40
11647;DHT22;5880;52.342;9.662;2023-01-23T05:28:05;5.50;72.50
11647;DHT22;5880;52.342;9.662;2023-01-23T05:30:31;5.50;72.50
11647;DHT22;5880;52.342;9.662;2023-01-23T05:32:56;5.50;72.50
11647;DHT22;5880;52.342;9.662;2023-01-23T05:35:22;5.50;72.40
11647;DHT22;5880;52.342;9.662;2023-01-23T05:37:49;5.50;72.50
11647;DHT22;5880;52.342;9.662;2023-01-23T05:40:16;5.50;72.40
11647;DHT22;5880;52.342;9.662;2023-01-23T05:42:43;5.50;72.50
11647;DHT22;5880;52.342;9.662;2023-01-23T05:45:09;5.50;72.60
11647;DHT22;5880;52.342;9.662;2023-01-23T05:47:35;5.50;72.40
11647;DHT22;5880;52.342;9.662;2023-01-23T05:50:00;5.50;72.50
11647;DHT22;5880;52.342;9.662;2023-01-23T05:52:26;5.50;72.40
11647;DHT22;5880;52.342;9.662;2023-01-23T05:54:52;5.50;72.30
11647;DHT22;5880;52.342;9.662;2023-01-23T05:57:18;5.50;72.30
11647;DHT22;5880;52.342;9.662;2023-01-23T05:59:43;5.50;72.30
11647;DHT22;5880;52.342;9.662;2023-01-23T06:02:09;5.50;72.30
11647;DHT22;5880;52.342;9.662;2023-01-23T06:04:35;5.50;72.50
11647;DHT22;5880;52.342;9.662;2023-01-23T06:07:01;5.50;72.30
11647;DHT22;5880;52.342;9.662;2023-01-23T06:09:26;5.50;72.30
11647;DHT22;5880;52.342;9.662;2023-01-23T06:11:52;5.50;72.20
11647;DHT22;5880;52.342;9.662;2023-01-23T06:14:18;5.50;72.10
11647;DHT22;5880;52.342;9.662;2023-01-23T06:16:43;5.50;72.20
11647;DHT22;5880;52.342;9.662;2023-01-23T06:19:09;5.50;72.10
11647;DHT22;5880;52.342;9.662;2023-01-23T06:21:35;5.50;72.20
11647;DHT22;5880;52.342;9.662;2023-01-23T06:24:01;5.50;72.10
11647;DHT22;5880;52.342;9.662;2023-01-23T06:26:27;5.50;72.30
11647;DHT22;5880;52.342;9.662;2023-01-23T06:28:53;5.50;72.20
11647;DHT22;5880;52.342;9.662;2023-01-23T06:31:19;5.50;72.20
11647;DHT22;5880;52.342;9.662;2023-01-23T06:33:49;5.50;72.10
11647;DHT22;5880;52.342;9.662;2023-01-23T06:36:16;5.50;72.20
11647;DHT22;5880;52.342;9.662;2023-01-23T06:38:42;5.50;72.20
11647;DHT22;5880;52.342;9.662;2023-01-23T06:41:09;5.50;72.30
11647;DHT22;5880;52.342;9.662;2023-01-23T06:43:34;5.50;72.30
11647;DHT22;5880;52.342;9.662;2023-01-23T06:46:00;5.50;72.30
11647;DHT22;5880;52.342;9.662;2023-01-23T06:48:26;5.60;72.20
11647;DHT22;5880;52.342;9.662;2023-01-23T06:50:51;5.50;72.20
11647;DHT22;5880;52.342;9.662;2023-01-23T06:53:18;5.50;72.20
11647;DHT22;5880;52.342;9.662;2023-01-23T06:55:44;5.50;72.10
11647;DHT22;5880;52.342;9.662;2023-01-23T06:58:10;5.50;72.00
11647;DHT22;5880;52.342;9.662;2023-01-23T07:00:35;5.50;72.00
11647;DHT22;5880;52.342;9.662;2023-01-23T07:03:01;5.50;72.10
11647;DHT22;5880;52.342;9.662;2023-01-23T07:05:28;5.50;72.10
11647;DHT22;5880;52.342;9.662;2023-01-23T07:07:55;5.50;72.20
11647;DHT22;5880;52.342;9.662;2023-01-23T07:10:21;5.50;72.20
11647;DHT22;5880;52.342;9.662;2023-01-23T07:12:47;5.70;72.20
11647;DHT22;5880;52.342;9.662;2023-01-23T07:15:15;5.50;72.10
11647;DHT22;5880;52.342;9.662;2023-01-23T07:17:41;5.50;72.10
11647;DHT22;5880;52.342;9.662;2023-01-23T07:20:07;5.50;72.10
11647;DHT22;5880;52.342;9.662;2023-01-23T07:22:34;5.50;72.10
11647;DHT22;5880;52.342;9.662;2023-01-23T07:25:00;5.50;72.10
11647;DHT22;5880;52.342;9.662;2023-01-23T07:27:25;5.50;72.00
11647;DHT22;5880;52.342;9.662;2023-01-23T07:29:51;5.50;72.00
11647;DHT22;5880;52.342;9.662;2023-01-23T07:32:17;5.50;72.10
11647;DHT22;5880;52.342;9.662;2023-01-23T07:34:42;5.50;72.00
11647;DHT22;5880;52.342;9.662;2023-01-23T07:37:08;5.50;72.80
11647;DHT22;5880;52.342;9.662;2023-01-23T07:39:33;5.50;72.00
11647;DHT22;5880;52.342;9.662;2023-01-23T07:41:59;5.50;72.10
11647;DHT22;5880;52.342;9.662;2023-01-23T07:44:25;5.40;72.00
11647;DHT22;5880;52.342;9.662;2023-01-23T07:46:50;5.40;72.10
11647;DHT22;5880;52.342;9.662;2023-01-23T07:49:16;5.40;72.00
11647;DHT22;5880;52.342;9.662;2023-01-23T07:51:42;5.40;72.00
11647;DHT22;5880;52.342;9.662;2023-01-23T07:54:08;5.50;72.10
11647;DHT22;5880;52.342;9.662;2023-01-23T07:56:34;5.40;72.10
11647;DHT22;5880;52.342;9.662;2023-01-23T07:59:00;5.40;72.10
11647;DHT22;5880;52.342;9.662;2023-01-23T08:01:26;5.40;72.00
11647;DHT22;5880;52.342;9.662;2023-01-23T08:03:52;5.60;72.20
11647;DHT22;5880;52.342;9.662;2023-01-23T08:06:18;5.40;72.00
11647;DHT22;5880;52.342;9.662;2023-01-23T08:08:47;5.40;72.00
11647;DHT22;5880;52.342;9.662;2023-01-23T08:11:13;5.40;71.90
11647;DHT22;5880;52.342;9.662;2023-01-23T08:13:38;5.40;71.90
11647;DHT22;5880;52.342;9.662;2023-01-23T08:16:05;5.40;72.00
11647;DHT22;5880;52.342;9.662;2023-01-23T08:18:32;5.50;72.20
11647;DHT22;5880;52.342;9.662;2023-01-23T08:21:00;5.50;72.10
11647;DHT22;5880;52.342;9.662;2023-01-23T08:23:30;5.50;72.10
11647;DHT22;5880;52.342;9.662;2023-01-23T08:26:00;5.50;72.10
11647;DHT22;5880;52.342;9.662;2023-01-23T08:28:27;5.50;72.00
11647;DHT22;5880;52.342;9.662;2023-01-23T08:30:53;5.50;72.10
11647;DHT22;5880;52.342;9.662;2023-01-23T08:33:20;5.50;72.10
11647;DHT22;5880;52.342;9.662;2023-01-23T08:35:50;5.50;72.00
11647;DHT22;5880;52.342;9.662;2023-01-23T08:38:17;5.40;71.90
11647;DHT22;5880;52.342;9.662;2023-01-23T08:40:44;5.50;72.00
11647;DHT22;5880;52.342;9.662;2023-01-23T08:43:11;5.40;71.80
11647;DHT22;5880;52.342;9.662;2023-01-23T08:45:38;5.40;71.90
11647;DHT22;5880;52.342;9.662;2023-01-23T08:48:06;5.40;71.90
11647;DHT22;5880;52.342;9.662;2023-01-23T08:50:32;5.50;72.00
11647;DHT22;5880;52.342;9.662;2023-01-23T08:52:58;5.40;72.00
11647;DHT22;5880;52.342;9.662;2023-01-23T08:55:24;5.40;72.00
11647;DHT22;5880;52.342;9.662;2023-01-23T08:57:49;5.40;72.00
11647;DHT22;5880;52.342;9.662;2023-01-23T09:00:15;5.40;72.00
11647;DHT22;5880;52.342;9.662;2023-01-23T09:02:41;5.40;72.00
11647;DHT22;5880;52.342;9.662;2023-01-23T09:05:07;5.40;72.10
11647;DHT22;5880;52.342;9.662;2023-01-23T09:07:33;5.40;72.10
11647;DHT22;5880;52.342;9.662;2023-01-23T09:10:01;5.40;72.20
11647;DHT22;5880;52.342;9.662;2023-01-23T09:12:27;5.40;72.30
11647;DHT22;5880;52.342;9.662;2023-01-23T09:14:52;5.40;72.30
11647;DHT22;5880;52.342;9.662;2023-01-23T09:17:19;5.40;72.30
11647;DHT22;5880;52.342;9.662;2023-01-23T09:19:44;5.50;72.40
11647;DHT22;5880;52.342;9.662;2023-01-23T09:22:10;5.40;72.30
11647;DHT22;5880;52.342;9.662;2023-01-23T09:24:36;5.50;72.30
11647;DHT22;5880;52.342;9.662;2023-01-23T09:27:01;5.50;72.40
11647;DHT22;5880;52.342;9.662;2023-01-23T09:29:27;5.50;72.20
11647;DHT22;5880;52.342;9.662;2023-01-23T09:31:53;5.50;72.20
11647;DHT22;5880;52.342;9.662;2023-01-23T09:34:18;5.50;72.10
11647;DHT22;5880;52.342;9.662;2023-01-23T09:36:44;5.50;72.10
11647;DHT22;5880;52.342;9.662;2023-01-23T09:39:10;5.50;72.20
11647;DHT22;5880;52.342;9.662;2023-01-23T09:41:37;5.50;72.20
11647;DHT22;5880;52.342;9.662;2023-01-23T09:44:18;5.60;72.10
11647;DHT22;5880;52.342;9.662;2023-01-23T09:47:00;5.50;72.00
11647;DHT22;5880;52.342;9.662;2023-01-23T09:49:44;5.60;72.00
11647;DHT22;5880;52.342;9.662;2023-01-23T09:52:20;5.50;72.00
11647;DHT22;5880;52.342;9.662;2023-01-23T09:57:57;5.50;72.10
11647;DHT22;5880;52.342;9.662;2023-01-23T10:00:31;5.50;72.10
11647;DHT22;5880;52.342;9.662;2023-01-23T10:03:09;5.60;72.20
11647;DHT22;5880;52.342;9.662;2023-01-23T10:08:37;5.60;72.00
11647;DHT22;5880;52.342;9.662;2023-01-23T10:11:16;5.60;71.90
11647;DHT22;5880;52.342;9.662;2023-01-23T10:17:06;5.60;72.00
11647;DHT22;5880;52.342;9.662;2023-01-23T10:20:04;5.60;72.10
11647;DHT22;5880;52.342;9.662;2023-01-23T10:22:56;5.60;72.00
11647;DHT22;5880;52.342;9.662;2023-01-23T10:25:42;5.60;72.00
11647;DHT22;5880;52.342;9.662;2023-01-23T10:28:17;5.60;72.00
11647;DHT22;5880;52.342;9.662;2023-01-23T10:30:59;5.60;72.00
11647;DHT22;5880;52.342;9.662;2023-01-23T10:33:35;5.60;71.90
11647;DHT22;5880;52.342;9.662;2023-01-23T10:39:08;5.70;72.00
11647;DHT22;5880;52.342;9.662;2023-01-23T10:41:39;5.70;72.00
11647;DHT22;5880;52.342;9.662;2023-01-23T10:44:16;5.70;72.10
11647;DHT22;5880;52.342;9.662;2023-01-23T10:46:49;5.70;72.10
11647;DHT22;5880;52.342;9.662;2023-01-23T10:49:30;5.80;72.00
11647;DHT22;5880;52.342;9.662;2023-01-23T10:51:59;5.80;71.80
11647;DHT22;5880;52.342;9.662;2023-01-23T10:54:27;5.80;71.70
11647;DHT22;5880;52.342;9.662;2023-01-23T10:57:02;5.80;71.50
11647;DHT22;5880;52.342;9.662;2023-01-23T11:00:01;5.80;71.50
11647;DHT22;5880;52.342;9.662;2023-01-23T11:02:34;5.80;71.60
11647;DHT22;5880;52.342;9.662;2023-01-23T11:08:27;5.80;71.60
11647;DHT22;5880;52.342;9.662;2023-01-23T11:11:18;5.90;71.70
11647;DHT22;5880;52.342;9.662;2023-01-23T11:14:09;5.80;71.60
11647;DHT22;5880;52.342;9.662;2023-01-23T11:16:38;5.80;71.60
11647;DHT22;5880;52.342;9.662;2023-01-23T11:19:24;6.00;71.80
11647;DHT22;5880;52.342;9.662;2023-01-23T11:21:59;5.90;71.70
11647;DHT22;5880;52.342;9.662;2023-01-23T11:24:31;5.90;71.70
11647;DHT22;5880;52.342;9.662;2023-01-23T11:27:14;5.90;71.70
11647;DHT22;5880;52.342;9.662;2023-01-23T11:32:40;5.90;71.60
11647;DHT22;5880;52.342;9.662;2023-01-23T11:35:17;5.90;71.60
11647;DHT22;5880;52.342;9.662;2023-01-23T11:37:46;5.90;71.60
11647;DHT22;5880;52.342;9.662;2023-01-23T11:40:16;5.90;71.70
11647;DHT22;5880;52.342;9.662;2023-01-23T11:42:44;5.90;71.70
11647;DHT22;5880;52.342;9.662;2023-01-23T11:54:47;5.90;71.40
11647;DHT22;5880;52.342;9.662;2023-01-23T12:00:56;5.90;71.10
11647;DHT22;5880;52.342;9.662;2023-01-23T12:04:06;5.90;71.20
11647;DHT22;5880;52.342;9.662;2023-01-23T12:09:43;5.80;71.40
11647;DHT22;5880;52.342;9.662;2023-01-23T12:21:19;5.80;71.30
11647;DHT22;5880;52.342;9.662;2023-01-23T12:24:16;5.80;71.10
11647;DHT22;5880;52.342;9.662;2023-01-23T12:30:35;5.70;71.30
11647;DHT22;5880;52.342;9.662;2023-01-23T12:33:20;5.80;71.40
11647;DHT22;5880;52.342;9.662;2023-01-23T12:36:35;5.80;71.60
11647;DHT22;5880;52.342;9.662;2023-01-23T12:42:16;5.80;71.60
11647;DHT22;5880;52.342;9.662;2023-01-23T12:47:40;5.80;71.50
11647;DHT22;5880;52.342;9.662;2023-01-23T12:53:24;5.80;71.40
11647;DHT22;5880;52.342;9.662;2023-01-23T12:56:13;5.90;71.40
11647;DHT22;5880;52.342;9.662;2023-01-23T12:58:49;5.80;71.30
11647;DHT22;5880;52.342;9.662;2023-01-23T13:14:02;5.90;71.30
11647;DHT22;5880;52.342;9.662;2023-01-23T13:16:47;5.90;71.30
11647;DHT22;5880;52.342;9.662;2023-01-23T13:19:22;5.80;71.00
11647;DHT22;5880;52.342;9.662;2023-01-23T13:24:47;5.80;71.10
11647;DHT22;5880;52.342;9.662;2023-01-23T13:32:53;5.80;71.30
11647;DHT22;5880;52.342;9.662;2023-01-23T13:43:53;5.90;71.70
11647;DHT22;5880;52.342;9.662;2023-01-23T13:50:29;5.90;71.40
11647;DHT22;5880;52.342;9.662;2023-01-23T13:53:14;5.90;71.10
11647;DHT22;5880;52.342;9.662;2023-01-23T13:56:02;5.90;71.20
11647;DHT22;5880;52.342;9.662;2023-01-23T13:58:50;5.90;71.40
11647;DHT22;5880;52.342;9.662;2023-01-23T14:01:19;5.90;71.50
11647;DHT22;5880;52.342;9.662;2023-01-23T14:04:18;6.00;71.50
11647;DHT22;5880;52.342;9.662;2023-01-23T14:07:26;6.00;71.30
11647;DHT22;5880;52.342;9.662;2023-01-23T14:12:47;6.00;71.20
11647;DHT22;5880;52.342;9.662;2023-01-23T14:15:18;6.00;72.00
11647;DHT22;5880;52.342;9.662;2023-01-23T14:18:25;6.00;71.30
11647;DHT22;5880;52.342;9.662;2023-01-23T14:21:00;6.00;71.30
11647;DHT22;5880;52.342;9.662;2023-01-23T14:23:43;6.00;71.30
11647;DHT22;5880;52.342;9.662;2023-01-23T14:26:14;6.00;71.30
11647;DHT22;5880;52.342;9.662;2023-01-23T14:29:02;6.00;71.30
11647;DHT22;5880;52.342;9.662;2023-01-23T14:31:35;6.00;71.40
11647;DHT22;5880;52.342;9.662;2023-01-23T14:34:11;6.00;71.30
11647;DHT22;5880;52.342;9.662;2023-01-23T14:36:43;6.00;71.30
11647;DHT22;5880;52.342;9.662;2023-01-23T14:39:19;6.00;71.20
11647;DHT22;5880;52.342;9.662;2023-01-23T14:41:48;6.00;71.20
11647;DHT22;5880;52.342;9.662;2023-01-23T14:44:20;6.00;71.30
11647;DHT22;5880;52.342;9.662;2023-01-23T14:46:53;6.00;71.30
11647;DHT22;5880;52.342;9.662;2023-01-23T14:49:28;6.10;71.40
11647;DHT22;5880;52.342;9.662;2023-01-23T14:51:59;6.10;71.30
11647;DHT22;5880;52.342;9.662;2023-01-23T14:54:28;6.10;71.30
11647;DHT22;5880;52.342;9.662;2023-01-23T14:56:55;6.10;71.40
11647;DHT22;5880;52.342;9.662;2023-01-23T14:59:36;6.10;71.40
11647;DHT22;5880;52.342;9.662;2023-01-23T15:02:24;5.90;71.50
11647;DHT22;5880;52.342;9.662;2023-01-23T15:10:47;6.10;71.10
11647;DHT22;5880;52.342;9.662;2023-01-23T15:13:38;6.10;71.10
11647;DHT22;5880;52.342;9.662;2023-01-23T15:16:21;6.10;71.10
11647;DHT22;5880;52.342;9.662;2023-01-23T15:19:02;6.20;71.10
11647;DHT22;5880;52.342;9.662;2023-01-23T15:21:36;6.10;71.10
11647;DHT22;5880;52.342;9.662;2023-01-23T15:26:59;6.10;71.10
11647;DHT22;5880;52.342;9.662;2023-01-23T15:29:28;6.00;71.00
11647;DHT22;5880;52.342;9.662;2023-01-23T15:31:55;6.00;71.00
11647;DHT22;5880;52.342;9.662;2023-01-23T15:34:25;6.00;70.90
11647;DHT22;5880;52.342;9.662;2023-01-23T15:37:21;6.00;71.00
11647;DHT22;5880;52.342;9.662;2023-01-23T15:40:00;5.90;71.10
11647;DHT22;5880;52.342;9.662;2023-01-23T15:42:33;5.90;71.10
11647;DHT22;5880;52.342;9.662;2023-01-23T15:45:00;5.90;71.10
11647;DHT22;5880;52.342;9.662;2023-01-23T15:47:31;5.90;71.20
11647;DHT22;5880;52.342;9.662;2023-01-23T15:49:58;5.90;71.30
11647;DHT22;5880;52.342;9.662;2023-01-23T15:52:41;5.90;71.30
11647;DHT22;5880;52.342;9.662;2023-01-23T15:55:10;5.90;71.40
11647;DHT22;5880;52.342;9.662;2023-01-23T15:57:37;5.90;71.40
11647;DHT22;5880;52.342;9.662;2023-01-23T16:02:43;5.90;71.50
11647;DHT22;5880;52.342;9.662;2023-01-23T16:05:09;6.00;71.50
11647;DHT22;5880;52.342;9.662;2023-01-23T16:07:42;5.90;71.50
11647;DHT22;5880;52.342;9.662;2023-01-23T16:10:22;5.90;71.40
11647;DHT22;5880;52.342;9.662;2023-01-23T16:12:52;5.90;71.50
11647;DHT22;5880;52.342;9.662;2023-01-23T16:15:22;5.80;71.30
11647;DHT22;5880;52.342;9.662;2023-01-23T16:17:50;5.80;71.40
11647;DHT22;5880;52.342;9.662;2023-01-23T16:20:33;5.80;71.40
11647;DHT22;5880;52.342;9.662;2023-01-23T16:23:08;5.80;71.50
11647;DHT22;5880;52.342;9.662;2023-01-23T16:25:38;5.80;71.50
11647;DHT22;5880;52.342;9.662;2023-01-23T16:28:05;5.80;71.50
11647;DHT22;5880;52.342;9.662;2023-01-23T16:30:31;5.80;71.50
11647;DHT22;5880;52.342;9.662;2023-01-23T16:32:57;5.80;71.60
11647;DHT22;5880;52.342;9.662;2023-01-23T16:35:24;5.80;71.60
11647;DHT22;5880;52.342;9.662;2023-01-23T16:37:51;5.80;71.60
11647;DHT22;5880;52.342;9.662;2023-01-23T16:40:20;5.90;71.80
11647;DHT22;5880;52.342;9.662;2023-01-23T16:42:49;5.80;71.70
11647;DHT22;5880;52.342;9.662;2023-01-23T16:45:24;5.80;71.60
11647;DHT22;5880;52.342;9.662;2023-01-23T16:47:52;5.80;71.70
11647;DHT22;5880;52.342;9.662;2023-01-23T16:50:37;5.80;71.70
11647;DHT22;5880;52.342;9.662;2023-01-23T16:53:08;5.80;71.80
11647;DHT22;5880;52.342;9.662;2023-01-23T16:55:43;5.80;71.70
11647;DHT22;5880;52.342;9.662;2023-01-23T16:58:16;5.80;71.80
11647;DHT22;5880;52.342;9.662;2023-01-23T17:00:44;5.70;71.80
11647;DHT22;5880;52.342;9.662;2023-01-23T17:03:23;5.70;71.80
11647;DHT22;5880;52.342;9.662;2023-01-23T17:05:52;5.70;71.80
11647;DHT22;5880;52.342;9.662;2023-01-23T17:08:20;5.80;71.80
11647;DHT22;5880;52.342;9.662;2023-01-23T17:10:50;5.70;71.90
11647;DHT22;5880;52.342;9.662;2023-01-23T17:13:25;5.70;71.80
11647;DHT22;5880;52.342;9.662;2023-01-23T17:15:54;5.70;71.90
11647;DHT22;5880;52.342;9.662;2023-01-23T17:18:30;5.70;71.80
11647;DHT22;5880;52.342;9.662;2023-01-23T17:20:57;5.70;71.90
11647;DHT22;5880;52.342;9.662;2023-01-23T17:23:24;5.70;71.90
11647;DHT22;5880;52.342;9.662;2023-01-23T17:25:50;5.80;71.90
11647;DHT22;5880;52.342;9.662;2023-01-23T17:28:18;5.80;71.90
11647;DHT22;5880;52.342;9.662;2023-01-23T17:30:46;5.80;71.90
11647;DHT22;5880;52.342;9.662;2023-01-23T17:33:18;5.80;71.80
11647;DHT22;5880;52.342;9.662;2023-01-23T17:35:49;5.80;71.90
11647;DHT22;5880;52.342;9.662;2023-01-23T17:38:19;5.70;71.80
11647;DHT22;5880;52.342;9.662;2023-01-23T17:40:47;5.70;71.80
11647;DHT22;5880;52.342;9.662;2023-01-23T17:43:14;5.80;71.80
11647;DHT22;5880;52.342;9.662;2023-01-23T17:45:41;5.70;71.80
11647;DHT22;5880;52.342;9.662;2023-01-23T17:48:27;5.70;71.80
11647;DHT22;5880;52.342;9.662;2023-01-23T17:50:56;5.70;71.90
11647;DHT22;5880;52.342;9.662;2023-01-23T17:53:22;5.80;71.80
11647;DHT22;5880;52.342;9.662;2023-01-23T17:55:48;5.70;71.80
11647;DHT22;5880;52.342;9.662;2023-01-23T17:58:18;5.90;71.90
11647;DHT22;5880;52.342;9.662;2023-01-23T18:00:46;5.90;71.90
11647;DHT22;5880;52.342;9.662;2023-01-23T18:03:19;5.80;71.80
11647;DHT22;5880;52.342;9.662;2023-01-23T18:05:46;5.80;71.80
11647;DHT22;5880;52.342;9.662;2023-01-23T18:08:14;5.80;71.80
11647;DHT22;5880;52.342;9.662;2023-01-23T18:10:46;5.80;71.70
11647;DHT22;5880;52.342;9.662;2023-01-23T18:13:26;5.80;71.70
11647;DHT22;5880;52.342;9.662;2023-01-23T18:16:18;5.70;71.70
11647;DHT22;5880;52.342;9.662;2023-01-23T18:21:52;5.70;71.70